Date,TemperatureHighF,TemperatureAvgF,TemperatureLowF,DewpointHighF,DewpointAvgF,DewpointLowF,HumidityHigh,HumidityAvg,HumidityLow,PressureMaxIn,PressureMinIn,WindSpeedMaxMPH,WindSpeedAvgMPH,GustSpeedMaxMPH,PrecipitationSumIn
2013-1-1,50.5,44.0,39.6,-99.9,-99.9,-99.9,0,0,100,30.26,30.19,13,5,22,0.00
2013-1-2,52.4,46.3,40.4,-99.9,-99.9,-99.9,0,0,100,30.23,30.13,9,4,16,0.00
2013-1-3,51.6,44.9,38.9,-99.9,-99.9,-99.9,0,0,100,30.26,30.15,9,3,17,0.00
2013-1-4,53.2,47.3,41.4,-99.9,-99.9,-99.9,0,0,100,30.28,30.17,10,5,18,0.00
2013-1-5,50.2,45.6,42.4,-99.9,-99.9,-99.9,0,0,100,30.24,30.04,6,0,16,0.57
2013-1-6,51.7,45.9,42.7,-99.9,-99.9,-99.9,0,0,100,30.17,30.05,11,2,20,0.05
2013-1-7,55.7,47.1,40.9,-99.9,-99.9,-99.9,0,0,100,30.25,30.16,1,0,5,0.01
2013-1-8,47.2,45.7,44.3,-99.9,-99.9,-99.9,0,0,100,30.18,30.17,1,0,3,0.00
2013-1-9,44.0,43.8,43.2,-99.9,-99.9,-99.9,0,0,100,30.07,30.06,3,1,15,0.00
2013-1-10,49.0,44.2,39.6,-99.9,-99.9,-99.9,0,0,100,30.17,30.06,13,4,31,0.00
2013-1-11,52.1,45.2,40.1,-99.9,-99.9,-99.9,0,0,100,30.24,30.11,11,2,33,0.00
2013-1-12,50.1,42.2,37.0,-99.9,-99.9,-99.9,0,0,100,30.24,30.13,5,1,10,0.00
2013-1-13,48.8,40.8,33.7,-99.9,-99.9,-99.9,0,0,100,30.25,30.16,9,1,16,0.00
2013-1-14,48.7,42.2,36.1,-99.9,-99.9,-99.9,0,0,100,30.39,30.23,8,2,15,0.00
2013-1-15,49.1,42.5,37.3,-99.9,-99.9,-99.9,0,0,100,30.47,30.38,10,3,18,0.00
2013-1-16,52.8,45.1,39.0,-99.9,-99.9,-99.9,0,0,100,30.42,30.24,13,8,21,0.00
2013-1-17,58.2,50.3,42.9,-99.9,-99.9,-99.9,0,0,100,30.25,30.14,13,9,21,0.00
2013-1-18,59.7,52.9,47.1,-99.9,-99.9,-99.9,0,0,100,30.22,30.13,11,6,20,0.00
2013-1-19,58.6,52.8,45.7,-99.9,-99.9,-99.9,0,0,100,30.24,30.15,12,6,23,0.00
2013-1-20,59.8,53.6,46.5,-99.9,-99.9,-99.9,0,0,100,30.22,30.13,9,4,21,0.00
2013-1-21,59.6,51.9,45.8,-99.9,-99.9,-99.9,0,0,100,30.17,30.08,12,7,21,0.00
2013-1-22,57.1,52.4,48.7,-99.9,-99.9,-99.9,0,0,100,30.11,30.00,11,4,19,0.00
2013-1-23,54.8,50.5,47.8,-99.9,-99.9,-99.9,0,0,100,30.08,29.95,5,1,11,0.30
2013-1-24,56.8,52.3,47.8,-99.9,-99.9,-99.9,0,0,100,30.16,30.06,7,3,15,0.00
2013-1-26,46.7,46.1,45.3,-99.9,-99.9,-99.9,0,0,100,30.07,30.06,1,1,14,0.00
2013-1-27,56.3,47.1,41.0,-99.9,-99.9,-99.9,0,0,100,30.16,30.06,8,1,18,0.00
2013-1-28,56.8,49.7,45.1,-99.9,-99.9,-99.9,0,0,100,30.27,30.14,8,3,25,0.00
2013-1-29,58.4,49.6,42.6,-99.9,-99.9,-99.9,0,0,100,30.34,30.26,9,0,16,0.00
2013-1-30,64.1,52.3,45.2,-99.9,-99.9,-99.9,0,0,100,30.33,30.26,9,1,13,0.00
2013-1-31,61.1,52.9,46.1,-99.9,-99.9,-99.9,0,0,100,30.28,30.18,12,3,19,0.00
2013-2-1,61.6,53.6,46.6,-99.9,-99.9,-99.9,0,0,100,30.22,30.12,10,5,20,0.00
2013-2-2,60.5,50.8,44.9,-99.9,-99.9,-99.9,0,0,100,30.29,30.21,7,2,12,0.00
2013-2-3,58.4,49.5,43.0,-99.9,-99.9,-99.9,0,0,100,30.24,30.14,9,1,16,0.01
2013-2-4,57.3,47.7,43.3,-99.9,-99.9,-99.9,0,0,100,30.17,30.07,7,1,13,0.01
2013-2-5,58.9,49.6,43.2,-99.9,-99.9,-99.9,0,0,100,30.15,30.06,9,2,21,0.00
2013-2-6,60.3,48.5,41.6,-99.9,-99.9,-99.9,0,0,100,30.19,30.11,8,2,16,0.00
2013-2-7,56.0,48.2,40.7,-99.9,-99.9,-99.9,0,0,100,30.16,29.97,11,4,25,0.30
2013-2-8,55.9,47.2,38.8,-99.9,-99.9,-99.9,0,0,100,30.00,29.93,9,3,18,0.05
2013-2-9,57.8,48.7,41.9,-99.9,-99.9,-99.9,0,0,100,30.08,29.99,8,2,16,0.00
2013-2-10,60.2,47.7,40.3,-99.9,-99.9,-99.9,0,0,100,30.11,30.02,9,1,17,0.00
2013-2-11,62.9,51.7,44.4,-99.9,-99.9,-99.9,0,0,100,30.22,30.07,11,5,22,0.00
2013-2-12,60.7,48.9,42.3,-99.9,-99.9,-99.9,0,0,100,30.35,30.23,7,2,14,0.01
2013-2-13,60.8,48.3,40.6,-99.9,-99.9,-99.9,0,0,100,30.33,30.20,11,3,19,0.01
2013-2-14,67.9,54.4,43.2,-99.9,-99.9,-99.9,0,0,100,30.23,30.16,6,1,11,0.01
2013-2-15,68.1,59.4,50.8,-99.9,-99.9,-99.9,0,0,100,30.27,30.20,9,4,16,0.00
2013-2-16,67.6,56.4,46.1,-99.9,-99.9,-99.9,0,0,100,30.23,30.04,7,2,13,0.00
2013-2-17,61.9,50.6,42.7,-99.9,-99.9,-99.9,0,0,100,30.05,29.96,10,2,17,0.01
2013-2-18,54.2,46.9,41.1,-99.9,-99.9,-99.9,0,0,100,30.02,29.95,13,4,26,0.00
2013-2-19,50.2,44.3,39.3,-99.9,-99.9,-99.9,0,0,100,29.95,29.74,10,2,26,0.52
2013-2-20,60.0,46.6,35.8,-99.9,-99.9,-99.9,0,0,100,30.05,29.84,8,1,16,0.00
2013-2-21,62.0,49.3,40.7,-99.9,-99.9,-99.9,0,0,100,30.17,30.03,11,2,19,0.00
2013-2-22,61.8,50.8,42.0,-99.9,-99.9,-99.9,0,0,100,30.24,30.16,11,2,22,0.00
2013-2-23,57.7,50.7,43.3,-99.9,-99.9,-99.9,0,0,100,30.25,30.16,12,4,25,0.02
2013-2-24,62.7,52.3,43.8,-99.9,-99.9,-99.9,0,0,100,30.24,30.16,12,4,26,0.00
2013-2-25,44.1,43.2,42.0,-99.9,-99.9,-99.9,0,0,100,30.24,30.23,2,0,7,0.00
2013-2-26,47.6,46.6,45.6,-99.9,-99.9,-99.9,0,0,100,30.20,30.20,0,0,1,0.00
2013-2-27,65.4,52.3,43.7,-99.9,-99.9,-99.9,0,0,100,30.36,30.20,9,2,16,0.00
2013-2-28,68.3,55.0,46.9,-99.9,-99.9,-99.9,0,0,100,30.44,30.36,6,1,12,0.00
2013-3-1,72.3,57.4,46.2,-99.9,-99.9,-99.9,0,0,100,30.43,30.24,5,1,10,0.01
2013-3-2,69.8,56.4,49.9,-99.9,-99.9,-99.9,0,0,100,30.24,30.08,10,3,21,0.00
2013-3-3,65.7,54.2,48.7,-99.9,-99.9,-99.9,0,0,100,30.09,30.03,11,7,29,0.00
2013-3-4,58.8,48.0,41.2,-99.9,-99.9,-99.9,0,0,100,30.14,30.05,13,3,31,0.00
2013-3-5,55.3,48.3,40.9,-99.9,-99.9,-99.9,0,0,100,30.06,29.80,26,8,51,0.34
2013-3-6,57.6,50.1,43.2,-99.9,-99.9,-99.9,0,0,100,30.05,29.82,21,6,42,0.00
2013-3-7,54.8,47.1,42.7,-99.9,-99.9,-99.9,0,0,100,29.98,29.84,8,2,16,0.04
2013-3-8,62.9,49.8,43.1,-99.9,-99.9,-99.9,0,0,100,30.06,29.82,8,1,19,0.00
2013-3-9,68.9,53.3,41.0,-99.9,-99.9,-99.9,0,0,100,30.30,30.06,6,1,14,0.00
2013-3-10,67.1,53.7,44.0,-99.9,-99.9,-99.9,0,0,100,30.34,30.24,11,2,20,0.00
2013-3-11,70.8,53.7,43.7,-99.9,-99.9,-99.9,0,0,100,30.25,30.11,12,2,19,0.00
2013-3-12,48.2,46.1,45.0,-99.9,-99.9,-99.9,0,0,100,30.12,30.10,2,0,6,0.00
2013-3-14,69.5,55.7,46.7,-99.9,-99.9,-99.9,0,0,100,30.16,30.08,9,2,21,0.00
2013-3-15,72.2,55.6,46.0,-99.9,-99.9,-99.9,0,0,100,30.13,30.04,11,1,23,0.00
2013-3-16,73.7,58.0,45.7,-99.9,-99.9,-99.9,0,0,100,30.11,30.03,8,2,20,0.01
2013-3-17,69.9,56.1,46.4,-99.9,-99.9,-99.9,0,0,100,30.14,30.05,7,2,18,0.00
2013-3-18,67.1,52.2,43.9,-99.9,-99.9,-99.9,0,0,100,30.11,30.03,14,2,29,0.00
2013-3-19,48.5,47.7,46.2,-99.9,-99.9,-99.9,0,0,100,30.08,30.05,4,0,6,0.00
2013-3-20,58.7,52.0,47.1,-99.9,-99.9,-99.9,0,0,100,30.14,30.06,11,4,24,0.66
2013-3-21,66.0,52.1,40.5,-99.9,-99.9,-99.9,0,0,100,30.12,30.01,9,1,16,0.01
2013-3-22,68.9,53.7,43.2,-99.9,-99.9,-99.9,0,0,100,30.11,30.03,7,2,14,0.00
2013-3-24,70.0,54.1,44.0,-99.9,-99.9,-99.9,0,0,100,30.08,29.98,10,3,17,0.00
2013-3-25,60.5,49.8,41.2,-99.9,-99.9,-99.9,0,0,100,30.01,29.92,11,5,27,0.00
2013-3-26,62.2,51.8,43.7,-99.9,-99.9,-99.9,0,0,100,29.99,29.93,12,4,22,0.00
2013-3-27,60.2,53.1,48.1,-99.9,-99.9,-99.9,0,0,100,30.01,29.94,8,3,15,0.01
2013-3-28,67.3,56.3,51.6,-99.9,-99.9,-99.9,0,0,100,30.09,30.00,10,4,19,0.04
2013-3-29,75.2,57.1,47.8,-99.9,-99.9,-99.9,0,0,100,30.08,30.02,16,4,26,0.00
2013-3-30,68.9,55.2,50.3,-99.9,-99.9,-99.9,0,0,100,30.08,29.99,13,6,28,0.21
2013-3-31,63.9,56.2,51.9,-99.9,-99.9,-99.9,0,0,100,30.07,30.00,11,5,28,0.23
2013-4-1,67.8,56.9,49.2,-99.9,-99.9,-99.9,0,0,100,30.16,30.05,10,4,19,0.17
2013-4-2,70.6,54.5,46.4,-99.9,-99.9,-99.9,0,0,100,30.19,30.09,11,3,21,0.00
2013-4-3,75.4,54.4,46.8,-99.9,-99.9,-99.9,0,0,100,30.14,30.00,14,3,26,0.01
2013-4-4,60.4,53.7,49.4,-99.9,-99.9,-99.9,0,0,100,30.13,29.99,18,6,34,0.82
2013-4-5,65.3,56.0,51.6,-99.9,-99.9,-99.9,0,0,100,30.19,30.11,10,4,21,0.03
2013-4-6,63.7,55.2,50.8,-99.9,-99.9,-99.9,0,0,100,30.19,30.13,11,4,24,0.05
2013-4-7,65.0,55.1,47.6,-99.9,-99.9,-99.9,0,0,100,30.17,29.83,19,6,45,0.23
2013-4-8,67.0,55.6,47.0,-99.9,-99.9,-99.9,0,0,100,30.04,29.79,12,7,34,0.00
2013-4-9,73.9,64.0,55.4,-99.9,-99.9,-99.9,0,0,100,30.10,30.02,13,7,28,0.00
2013-4-10,87.2,70.2,59.8,-99.9,-99.9,-99.9,0,0,100,30.19,30.06,10,2,20,0.00
2013-4-11,77.1,61.5,49.4,-99.9,-99.9,-99.9,0,0,100,30.06,29.86,5,1,14,0.00
2013-4-12,74.5,57.5,46.0,-99.9,-99.9,-99.9,0,0,100,29.92,29.84,11,3,19,0.00
2013-4-13,73.8,57.7,46.1,-99.9,-99.9,-99.9,0,0,100,29.90,29.83,9,1,17,0.00
2013-4-14,72.9,55.6,44.1,-99.9,-99.9,-99.9,0,0,100,29.92,29.86,10,3,21,0.00
2013-4-15,63.0,50.5,42.5,-99.9,-99.9,-99.9,0,0,100,29.95,29.85,8,2,33,0.01
2013-4-16,67.9,56.1,43.1,-99.9,-99.9,-99.9,0,0,100,30.17,29.96,9,3,22,0.00
2013-4-17,72.2,60.4,52.8,-99.9,-99.9,-99.9,0,0,100,30.27,30.17,12,5,27,0.00
2013-4-18,76.5,63.2,52.2,-99.9,-99.9,-99.9,0,0,100,30.27,30.20,11,2,22,0.00
2013-4-19,78.6,62.5,47.8,-99.9,-99.9,-99.9,0,0,100,30.23,30.08,13,2,22,0.00
2013-4-20,79.7,63.5,51.2,-99.9,-99.9,-99.9,0,0,100,30.11,30.01,10,2,19,0.00
2013-4-21,82.6,64.5,50.2,-99.9,-99.9,-99.9,0,0,100,30.05,29.95,12,2,23,0.00
2013-4-22,84.1,65.3,55.9,-99.9,-99.9,-99.9,0,0,100,29.98,29.93,5,1,13,0.00
2013-4-26,68.5,54.7,45.6,-99.9,-99.9,-99.9,0,0,100,30.23,30.12,13,5,26,0.00
2013-4-27,71.3,55.0,45.3,-99.9,-99.9,-99.9,0,0,100,30.23,30.07,12,4,22,0.00
2013-4-28,81.0,62.2,46.9,-99.9,-99.9,-99.9,0,0,100,30.07,29.90,12,3,18,0.01
2013-4-29,88.4,69.3,54.8,-99.9,-99.9,-99.9,0,0,100,29.91,29.79,13,2,21,0.00
2013-4-30,84.7,67.3,50.8,-99.9,-99.9,-99.9,0,0,100,29.87,29.80,14,3,34,0.00
2013-5-1,79.1,67.9,55.4,-99.9,-99.9,-99.9,0,0,100,30.10,29.87,16,8,29,0.00
2013-5-2,93.7,70.9,55.5,-99.9,-99.9,-99.9,0,0,100,30.17,30.09,9,2,18,0.00
2013-5-3,86.0,67.8,55.7,-99.9,-99.9,-99.9,0,0,100,30.09,29.80,12,3,22,0.00
2013-5-4,77.1,60.1,52.3,-99.9,-99.9,-99.9,0,0,100,29.79,29.61,18,7,34,0.00
2013-5-5,66.0,57.1,52.3,-99.9,-99.9,-99.9,0,0,100,29.82,29.61,16,9,35,0.00
2013-5-6,73.5,61.9,53.0,-99.9,-99.9,-99.9,0,0,100,29.98,29.82,11,4,21,0.00
2013-5-7,73.3,61.3,53.2,-99.9,-99.9,-99.9,0,0,100,30.05,29.96,11,6,24,0.00
2013-5-8,66.3,56.7,50.8,-99.9,-99.9,-99.9,0,0,100,30.14,30.04,11,5,26,0.00
2013-5-9,69.9,57.6,48.7,-99.9,-99.9,-99.9,0,0,100,30.19,30.10,12,5,22,0.00
2013-5-10,72.3,58.2,48.9,-99.9,-99.9,-99.9,0,0,100,30.18,30.12,12,4,20,0.00
2013-5-11,76.5,59.0,50.1,-99.9,-99.9,-99.9,0,0,100,30.15,30.06,14,5,26,0.00
2013-5-12,83.1,63.9,50.0,-99.9,-99.9,-99.9,0,0,100,30.15,30.05,8,3,16,0.01
2013-5-13,83.7,64.7,49.3,-99.9,-99.9,-99.9,0,0,100,30.09,29.96,7,2,12,0.01
2013-5-14,55.0,52.5,50.9,-99.9,-99.9,-99.9,0,0,100,29.96,29.93,2,0,9,0.00
2013-5-17,69.6,58.2,48.8,-99.9,-99.9,-99.9,0,0,100,30.07,29.96,15,6,28,0.00
2013-5-18,83.8,64.2,47.1,-99.9,-99.9,-99.9,0,0,100,30.13,30.06,5,1,17,0.00
2013-5-19,83.3,67.5,51.9,-99.9,-99.9,-99.9,0,0,100,30.13,30.00,10,2,20,0.00
2013-5-20,88.1,67.1,51.7,-99.9,-99.9,-99.9,0,0,100,30.02,29.93,12,3,21,0.00
2013-5-21,77.1,61.4,50.5,-99.9,-99.9,-99.9,0,0,100,30.00,29.91,12,3,37,0.00
2013-5-22,73.3,58.4,47.6,-99.9,-99.9,-99.9,0,0,100,30.01,29.91,10,4,25,0.00
2013-5-23,73.9,59.3,45.9,-99.9,-99.9,-99.9,0,0,100,30.01,29.91,11,3,26,0.00
2013-5-24,75.6,59.9,46.3,-99.9,-99.9,-99.9,0,0,100,30.00,29.95,10,3,20,0.00
2013-5-25,73.9,59.4,46.4,-99.9,-99.9,-99.9,0,0,100,30.05,29.95,10,3,21,0.00
2013-5-26,67.5,59.7,51.2,-99.9,-99.9,-99.9,0,0,100,30.13,30.05,17,7,35,0.00
2013-5-27,65.3,57.0,51.5,-99.9,-99.9,-99.9,0,0,100,30.12,30.00,10,5,18,0.15
2013-5-28,77.7,64.0,53.5,-99.9,-99.9,-99.9,0,0,100,29.99,29.94,10,4,20,0.01
2013-5-29,80.4,63.8,52.9,-99.9,-99.9,-99.9,0,0,100,29.98,29.92,11,5,25,0.00
2013-5-30,84.3,64.7,49.1,-99.9,-99.9,-99.9,0,0,100,30.00,29.93,9,1,14,0.00
2013-5-31,91.0,68.5,51.3,-99.9,-99.9,-99.9,0,0,100,30.03,29.93,10,2,20,0.00
2013-6-1,89.2,70.1,53.0,-99.9,-99.9,-99.9,0,0,100,29.95,29.80,11,2,18,0.00
2013-6-2,82.8,63.7,52.4,-99.9,-99.9,-99.9,0,0,100,29.80,29.69,13,6,24,0.00
2013-6-3,67.9,58.1,51.7,-99.9,-99.9,-99.9,0,0,100,29.87,29.73,14,9,38,0.00
2013-6-4,65.7,57.3,52.9,-99.9,-99.9,-99.9,0,0,100,29.97,29.86,11,7,28,0.00
2013-6-5,66.6,56.7,51.4,-99.9,-99.9,-99.9,0,0,100,30.00,29.93,16,8,31,0.00
2013-6-6,68.1,56.9,50.4,-99.9,-99.9,-99.9,0,0,100,29.96,29.86,17,8,29,0.00
2013-6-7,78.4,61.9,51.3,-99.9,-99.9,-99.9,0,0,100,29.89,29.74,14,8,22,0.00
2013-6-8,68.9,58.8,53.4,-99.9,-99.9,-99.9,0,0,100,29.82,29.73,21,12,43,0.00
2013-6-9,64.9,57.1,54.2,-99.9,-99.9,-99.9,0,0,100,29.90,29.81,13,8,34,0.02
2013-6-10,68.6,58.3,53.5,-99.9,-99.9,-99.9,0,0,100,29.96,29.79,13,6,32,0.04
2013-6-11,73.6,62.9,54.1,-99.9,-99.9,-99.9,0,0,100,30.00,29.90,14,5,26,0.00
2013-6-12,86.0,65.3,49.4,-99.9,-99.9,-99.9,0,0,100,30.01,29.91,10,2,17,0.00
2013-6-13,88.0,66.6,49.1,-99.9,-99.9,-99.9,0,0,100,30.10,30.00,8,1,15,0.00
2013-6-14,84.4,66.9,51.9,-99.9,-99.9,-99.9,0,0,100,30.00,29.85,11,4,26,0.00
2013-6-15,67.4,57.0,50.2,-99.9,-99.9,-99.9,0,0,100,29.99,29.84,17,7,32,0.00
2013-6-16,85.7,65.1,48.0,-99.9,-99.9,-99.9,0,0,100,30.09,29.98,8,2,17,0.01
2013-6-17,82.0,64.6,51.5,-99.9,-99.9,-99.9,0,0,100,30.09,30.02,11,4,22,0.00
2013-6-18,73.0,62.1,52.9,-99.9,-99.9,-99.9,0,0,100,30.03,29.99,14,7,28,0.00
2013-6-19,81.1,66.3,52.9,-99.9,-99.9,-99.9,0,0,100,30.06,30.00,9,3,21,0.00
2013-6-20,85.6,66.9,51.8,-99.9,-99.9,-99.9,0,0,100,30.01,29.96,11,2,21,0.00
2013-6-21,88.2,67.7,51.1,-99.9,-99.9,-99.9,0,0,100,29.99,29.93,10,2,21,0.00
2013-6-22,89.2,68.1,52.2,-99.9,-99.9,-99.9,0,0,100,29.94,29.86,13,2,25,0.00
2013-6-23,64.4,58.5,54.9,-99.9,-99.9,-99.9,0,0,100,29.89,29.82,13,6,25,0.01
2013-6-24,61.4,57.1,53.8,-99.9,-99.9,-99.9,0,0,100,29.91,29.79,7,4,20,0.15
2013-6-25,66.8,59.9,56.8,-99.9,-99.9,-99.9,0,0,100,29.99,29.89,16,8,29,1.19
2013-6-26,79.7,68.0,58.6,-99.9,-99.9,-99.9,0,0,100,30.08,29.98,12,5,23,0.02
2013-6-27,94.7,73.6,56.8,-99.9,-99.9,-99.9,0,0,100,30.10,30.04,9,1,14,0.00
2013-6-28,86.3,70.9,58.2,-99.9,-99.9,-99.9,0,0,100,30.05,29.92,17,5,26,0.00
2013-6-29,88.8,71.8,58.4,-99.9,-99.9,-99.9,0,0,100,29.93,29.83,12,3,23,0.00
2013-6-30,90.2,71.5,57.2,-99.9,-99.9,-99.9,0,0,100,29.86,29.82,8,2,15,0.00
2013-7-1,85.5,67.8,56.3,-99.9,-99.9,-99.9,0,0,100,29.87,29.81,14,6,26,0.00
2013-7-2,80.7,64.9,55.4,-99.9,-99.9,-99.9,0,0,100,29.94,29.82,14,10,31,0.00
2013-7-11,67.9,56.8,51.7,-99.9,-99.9,-99.9,0,0,100,29.94,29.88,20,9,30,0.00
2013-7-12,67.8,57.6,52.5,-99.9,-99.9,-99.9,0,0,100,29.95,29.88,15,9,30,0.00
2013-7-13,72.4,60.0,52.7,-99.9,-99.9,-99.9,0,0,100,29.97,29.90,16,10,25,0.00
2013-8-15,82.1,67.1,57.1,-99.9,-99.9,-99.9,0,0,100,29.98,29.92,13,4,25,0.01
2013-8-16,84.7,67.4,57.0,-99.9,-99.9,-99.9,0,0,100,30.00,29.94,13,5,22,0.01
2013-8-17,86.2,66.8,55.4,-99.9,-99.9,-99.9,0,0,100,29.99,29.88,7,2,13,0.00
2013-8-18,84.0,66.6,56.1,-99.9,-99.9,-99.9,0,0,100,29.90,29.80,13,5,22,0.00
2013-8-19,74.2,63.4,56.5,-99.9,-99.9,-99.9,0,0,100,29.91,29.80,18,12,30,0.00
2013-8-20,69.3,60.1,56.6,-99.9,-99.9,-99.9,0,0,100,29.91,29.84,17,9,32,0.01
2013-8-21,74.0,62.2,56.7,-99.9,-99.9,-99.9,0,0,100,29.95,29.87,13,7,25,0.00
2013-8-22,71.8,61.7,54.4,-99.9,-99.9,-99.9,0,0,100,29.98,29.90,13,8,32,0.00
2013-8-23,76.9,62.1,55.0,-99.9,-99.9,-99.9,0,0,100,29.93,29.82,11,3,21,0.00
2013-8-24,76.8,63.2,53.8,-99.9,-99.9,-99.9,0,0,100,29.91,29.83,15,6,26,0.02
2013-8-25,75.0,63.9,58.3,-99.9,-99.9,-99.9,0,0,100,29.95,29.90,12,5,22,0.00
2013-8-27,82.2,65.5,54.5,-99.9,-99.9,-99.9,0,0,100,29.92,29.84,11,3,18,0.00
2013-8-28,77.2,64.8,54.9,-99.9,-99.9,-99.9,0,0,100,29.97,29.86,14,6,25,0.01
2013-8-29,80.6,68.4,58.4,-99.9,-99.9,-99.9,0,0,100,30.07,29.97,11,4,20,0.00
2013-8-30,92.3,70.0,58.5,-99.9,-99.9,-99.9,0,0,100,30.06,29.94,8,1,14,0.01
2013-8-31,78.7,64.6,55.3,-99.9,-99.9,-99.9,0,0,100,29.98,29.94,7,2,13,0.00
2013-9-4,81.8,66.1,55.0,-99.9,-99.9,-99.9,0,0,100,30.03,29.95,9,2,20,0.01
2013-9-5,83.4,67.6,55.2,-99.9,-99.9,-99.9,0,0,100,30.01,29.96,9,2,19,0.01
2013-9-6,91.7,71.8,56.8,-99.9,-99.9,-99.9,0,0,100,30.00,29.85,6,1,15,0.00
2013-9-7,89.7,70.9,56.6,-99.9,-99.9,-99.9,0,0,100,29.89,29.83,16,4,25,0.00
2013-9-8,76.2,62.4,54.2,-99.9,-99.9,-99.9,0,0,100,29.88,29.77,17,8,28,0.00
2013-9-9,76.8,61.9,51.7,-99.9,-99.9,-99.9,0,0,100,29.81,29.72,19,9,32,0.01
2013-9-16,82.4,64.7,56.4,-99.9,-99.9,-99.9,0,0,100,29.90,29.80,8,3,15,0.01
2013-9-17,76.4,64.1,54.2,-99.9,-99.9,-99.9,0,0,100,29.90,29.81,9,1,18,0.00
2013-9-18,81.3,65.7,54.8,-99.9,-99.9,-99.9,0,0,100,29.92,29.83,9,2,20,0.00
2013-9-19,83.3,66.0,53.1,-99.9,-99.9,-99.9,0,0,100,29.86,29.76,12,2,20,0.00
2013-9-20,70.5,60.1,51.4,-99.9,-99.9,-99.9,0,0,100,29.87,29.77,10,4,25,0.02
2013-9-21,67.5,61.0,56.7,-99.9,-99.9,-99.9,0,0,100,29.90,29.80,10,4,25,0.41
2013-9-22,73.1,61.4,51.7,-99.9,-99.9,-99.9,0,0,100,30.00,29.90,8,2,18,0.00
2013-9-23,80.5,66.5,55.6,-99.9,-99.9,-99.9,0,0,100,30.03,29.95,9,1,17,0.00
2013-9-24,77.4,64.7,55.9,-99.9,-99.9,-99.9,0,0,100,30.00,29.90,12,3,33,0.00
2013-9-25,71.6,61.7,55.4,-99.9,-99.9,-99.9,0,0,100,29.93,29.82,9,2,21,0.00
2013-10-2,75.5,61.5,52.0,-99.9,-99.9,-99.9,0,0,100,30.01,29.93,8,1,17,0.00
2013-10-3,75.6,64.1,52.2,-99.9,-99.9,-99.9,0,0,100,30.07,29.97,17,4,31,0.00
2013-10-4,77.7,69.1,62.8,-99.9,-99.9,-99.9,0,0,100,30.10,29.95,22,10,44,0.00
2013-10-5,81.9,70.3,60.7,-99.9,-99.9,-99.9,0,0,100,30.20,30.11,9,3,17,0.00
2013-10-6,83.5,66.9,55.8,-99.9,-99.9,-99.9,0,0,100,30.13,30.00,7,2,14,0.00
2013-10-7,77.6,64.7,53.2,-99.9,-99.9,-99.9,0,0,100,30.00,29.89,13,3,22,0.00
2013-10-8,72.3,58.7,50.0,-99.9,-99.9,-99.9,0,0,100,29.91,29.70,11,2,19,0.00
2013-10-9,69.3,58.8,48.0,-99.9,-99.9,-99.9,0,0,100,29.76,29.63,11,3,21,0.00
2013-10-10,60.2,54.1,49.3,-99.9,-99.9,-99.9,0,0,100,30.00,29.76,14,8,25,0.00
2013-10-13,70.9,58.4,49.8,-99.9,-99.9,-99.9,0,0,100,30.06,29.92,12,2,24,0.00
2013-10-14,75.8,61.4,51.6,-99.9,-99.9,-99.9,0,0,100,30.11,30.02,7,1,14,0.00
2013-10-15,59.4,56.4,54.6,-99.9,-99.9,-99.9,0,0,100,30.03,30.00,0,0,1,0.00
2013-10-16,80.9,65.3,55.4,-99.9,-99.9,-99.9,0,0,100,30.09,30.00,8,2,16,0.00
2013-10-17,80.0,63.8,53.5,-99.9,-99.9,-99.9,0,0,100,30.08,29.98,10,1,18,0.00
2013-10-18,75.1,57.3,46.9,-99.9,-99.9,-99.9,0,0,100,30.05,29.99,12,2,19,0.00
2013-10-25,69.3,56.0,46.2,-99.9,-99.9,-99.9,0,0,100,30.16,30.08,7,0,12,0.01
2013-10-26,74.5,56.9,47.5,-99.9,-99.9,-99.9,0,0,100,30.15,30.02,9,2,15,0.00
2013-10-27,59.3,51.6,47.4,-99.9,-99.9,-99.9,0,0,100,30.02,29.64,21,10,42,0.01
2013-11-16,49.9,49.0,48.5,-99.9,-99.9,-99.9,0,0,100,29.92,29.92,2,0,8,0.00
2013-11-17,59.9,50.4,45.3,-99.9,-99.9,-99.9,0,0,100,30.08,29.92,7,2,13,0.01
2013-11-18,57.6,51.3,44.9,-99.9,-99.9,-99.9,0,0,100,30.15,30.08,8,2,16,0.00
2013-11-19,55.6,53.9,51.2,-99.9,-99.9,-99.9,0,0,100,30.08,29.93,15,5,29,0.95
2013-11-20,58.1,54.4,50.4,-99.9,-99.9,-99.9,0,0,100,29.92,29.84,11,4,23,1.10
2013-11-21,60.0,54.3,49.4,-99.9,-99.9,-99.9,0,0,100,29.98,29.89,21,9,37,0.00